createdAt,value
2018-07-19T00:01:27.492Z,4.05
2018-07-19T00:03:57.639Z,4.27
2018-07-19T00:06:27.232Z,4.60
2018-07-19T00:08:57.667Z,4.40
2018-07-19T00:11:27.966Z,5.30
2018-07-19T00:13:58.391Z,4.50
2018-07-19T00:16:28.095Z,4.75
2018-07-19T00:18:58.264Z,4.25
2018-07-19T00:21:28.794Z,4.60
2018-07-19T00:23:58.803Z,4.87
2018-07-19T00:26:29.273Z,5.50
2018-07-19T00:28:59.719Z,4.53
2018-07-19T00:31:29.831Z,4.85
2018-07-19T00:33:59.511Z,4.75
2018-07-19T00:36:29.250Z,4.73
2018-07-19T00:38:59.196Z,4.47
2018-07-19T00:41:30.206Z,5.35
2018-07-19T00:44:00.549Z,4.50
2018-07-19T00:46:30.148Z,4.93
2018-07-19T00:49:00.563Z,5.05
2018-07-19T00:51:30.353Z,4.70
2018-07-19T00:54:00.407Z,4.80
2018-07-19T00:56:31.776Z,4.97
2018-07-19T00:59:02.076Z,4.78
2018-07-19T01:01:31.844Z,5.27
2018-07-19T01:04:02.202Z,4.77
2018-07-19T01:06:32.731Z,4.67
2018-07-19T01:09:02.480Z,4.85
2018-07-19T01:11:32.072Z,4.80
2018-07-19T01:14:01.973Z,4.90
2018-07-19T01:16:32.303Z,4.85
2018-07-19T01:19:01.832Z,5.35
2018-07-19T01:21:32.134Z,5.30
2018-07-19T01:24:02.613Z,5.03
2018-07-19T01:26:32.673Z,4.80
2018-07-19T01:29:02.752Z,4.87
2018-07-19T01:31:32.333Z,4.40
2018-07-19T01:34:01.939Z,4.80
2018-07-19T01:36:31.541Z,4.87
2018-07-19T01:39:01.217Z,5.00
2018-07-19T01:42:12.026Z,4.90
2018-07-19T01:44:41.796Z,5.40
2018-07-19T01:47:11.900Z,5.33
2018-07-19T01:49:43.917Z,5.80
2018-07-19T01:52:14.415Z,4.57
2018-07-19T01:54:44.727Z,5.37
2018-07-19T01:57:16.177Z,5.17
2018-07-19T01:59:47.183Z,5.87
2018-07-19T02:02:18.652Z,5.60
2018-07-19T02:04:49.240Z,5.73
2018-07-19T02:07:18.742Z,5.20
2018-07-19T02:09:48.316Z,5.40
2018-07-19T02:12:18.611Z,5.63
2018-07-19T02:14:48.304Z,6.07
2018-07-19T02:17:18.272Z,6.30
2018-07-19T02:19:48.772Z,5.73
2018-07-19T02:22:18.717Z,6.57
2018-07-19T02:24:48.436Z,6.57
2018-07-19T02:27:18.777Z,6.23
2018-07-19T02:29:50.064Z,7.25
2018-07-19T02:32:19.756Z,6.47
2018-07-19T02:34:49.593Z,6.47
2018-07-19T02:37:19.215Z,6.40
2018-07-19T02:39:49.484Z,7.25
2018-07-19T02:42:20.455Z,6.28
2018-07-19T02:44:51.261Z,6.10
2018-07-19T02:47:20.773Z,7.17
2018-07-19T02:49:51.095Z,6.67
2018-07-19T02:52:21.621Z,6.90
2018-07-19T02:54:52.217Z,7.40
2018-07-19T02:57:22.678Z,7.77
2018-07-19T02:59:52.201Z,7.67
2018-07-19T03:02:21.832Z,6.93
2018-07-19T03:04:51.531Z,7.90
2018-07-19T03:07:21.307Z,7.00
2018-07-19T03:09:50.891Z,6.80
2018-07-19T03:12:21.108Z,6.47
2018-07-19T03:14:51.538Z,7.40
2018-07-19T03:17:22.080Z,7.30
2018-07-19T03:19:52.832Z,7.87
2018-07-19T03:22:23.359Z,8.33
2018-07-19T03:24:54.203Z,7.87
2018-07-19T03:27:24.624Z,7.53
2018-07-19T03:29:54.255Z,7.80
2018-07-19T03:32:24.560Z,7.13
2018-07-19T03:34:54.720Z,6.83
2018-07-19T03:37:25.392Z,7.50
2018-07-19T03:39:55.836Z,6.03
2018-07-19T03:42:25.924Z,6.53
2018-07-19T03:44:56.621Z,6.77
2018-07-19T03:47:26.708Z,6.47
2018-07-19T03:49:56.420Z,7.90
2018-07-19T03:52:25.511Z,7.07
2018-07-19T03:54:55.855Z,6.80
2018-07-19T03:57:26.235Z,8.60
2018-07-19T03:59:55.976Z,7.83
2018-07-19T04:02:26.379Z,8.13
2018-07-19T04:04:56.831Z,7.60
2018-07-19T04:07:26.411Z,9.93
2018-07-19T04:09:56.640Z,11.13
2018-07-19T04:12:27.103Z,13.75
2018-07-19T04:14:56.719Z,37.93
2018-07-19T04:17:26.260Z,32.70
2018-07-19T04:19:56.278Z,31.43
2018-07-19T04:22:26.318Z,19.67
2018-07-19T04:24:56.832Z,18.30
2018-07-19T04:27:26.678Z,14.13
2018-07-19T04:29:57.207Z,14.63
2018-07-19T04:32:26.332Z,12.40
2018-07-19T04:34:56.419Z,12.45
2018-07-19T04:37:26.636Z,9.98
2018-07-19T04:39:56.841Z,10.95
2018-07-19T04:42:26.641Z,10.38
2018-07-19T04:44:57.270Z,8.63
2018-07-19T04:47:27.106Z,8.00
2018-07-19T04:49:56.739Z,8.07
2018-07-19T04:52:26.349Z,8.23
2018-07-19T04:54:56.704Z,6.73
2018-07-19T04:57:27.572Z,7.37
2018-07-19T04:59:58.240Z,7.47
2018-07-19T05:02:27.868Z,7.47
2018-07-19T05:04:58.478Z,7.00
2018-07-19T05:07:27.949Z,7.12
2018-07-19T05:09:57.840Z,7.67
2018-07-19T05:12:28.120Z,6.75
2018-07-19T05:14:58.752Z,6.75
2018-07-19T05:17:28.224Z,6.12
2018-07-19T05:19:59.526Z,6.97
2018-07-19T05:22:29.185Z,6.05
2018-07-19T05:24:58.927Z,6.75
2018-07-19T05:27:29.252Z,7.25
2018-07-19T05:29:59.818Z,6.28
2018-07-19T05:32:29.592Z,8.35
2018-07-19T05:34:59.366Z,8.18
2018-07-19T05:37:29.173Z,11.75
2018-07-19T05:39:58.699Z,8.85
2018-07-19T05:42:28.393Z,7.80
2018-07-19T05:44:58.259Z,7.55
2018-07-19T05:47:28.132Z,8.05
2018-07-19T05:49:59.000Z,7.70
2018-07-19T05:52:28.627Z,7.90
2018-07-19T05:54:59.127Z,6.83
2018-07-19T05:57:28.820Z,8.18
2018-07-19T05:59:58.312Z,8.18
2018-07-19T06:02:28.288Z,7.40
2018-07-19T06:04:59.269Z,7.12
2018-07-19T06:07:29.340Z,7.20
2018-07-19T06:09:58.891Z,6.83
2018-07-19T06:12:28.847Z,6.60
2018-07-19T06:14:58.472Z,7.00
2018-07-19T06:17:28.047Z,6.83
2018-07-19T06:19:58.449Z,6.70
2018-07-19T06:22:28.676Z,6.62
2018-07-19T06:24:58.423Z,6.70
2018-07-19T06:27:28.980Z,6.80
2018-07-19T06:29:58.740Z,6.72
2018-07-19T06:32:28.808Z,6.70
2018-07-19T06:34:59.404Z,7.05
2018-07-19T06:37:29.520Z,7.70
2018-07-19T06:40:00.240Z,6.95
2018-07-19T06:42:30.001Z,7.03
2018-07-19T06:44:59.915Z,7.50
2018-07-19T06:47:29.826Z,7.40
2018-07-19T06:50:01.205Z,7.55
2018-07-19T06:52:40.315Z,6.58
2018-07-19T06:55:16.478Z,6.83
2018-07-19T06:57:46.391Z,6.53
2018-07-19T07:00:16.273Z,6.47
2018-07-19T07:02:45.923Z,6.62
2018-07-19T07:05:18.422Z,6.62
2018-07-19T07:07:48.784Z,6.37
2018-07-19T07:10:18.756Z,6.70
2018-07-19T07:12:48.472Z,5.97
2018-07-19T07:15:18.177Z,6.10
2018-07-19T07:17:47.941Z,6.50
2018-07-19T07:20:19.091Z,7.33
2018-07-19T07:22:49.664Z,7.67
2018-07-19T07:25:20.899Z,7.53
2018-07-19T07:27:50.829Z,7.12
2018-07-19T07:30:20.476Z,6.55
2018-07-19T07:32:55.283Z,6.62
2018-07-19T07:35:25.224Z,7.17
2018-07-19T07:37:58.520Z,5.83
2018-07-19T07:40:28.311Z,7.10
2018-07-19T07:45:30.603Z,7.47
2018-07-19T07:48:00.475Z,7.53
2018-07-19T07:50:30.657Z,7.50
2018-07-19T07:53:00.317Z,6.35
2018-07-19T07:55:30.508Z,6.60
2018-07-19T07:58:00.668Z,6.40
2018-07-19T08:00:30.924Z,6.37
2018-07-19T08:03:06.192Z,6.08
2018-07-19T08:05:35.867Z,8.23
2018-07-19T08:08:06.279Z,7.95
2018-07-19T08:10:36.937Z,7.05
2018-07-19T08:13:07.285Z,7.95
2018-07-19T08:15:37.596Z,7.67
2018-07-19T08:18:08.092Z,7.42
2018-07-19T08:20:38.584Z,6.83
2018-07-19T08:23:09.173Z,7.40
2018-07-19T08:25:38.884Z,7.33
2018-07-19T08:28:09.023Z,8.83
2018-07-19T08:30:42.295Z,7.30
2018-07-19T08:33:12.741Z,8.18
2018-07-19T08:35:42.551Z,7.60
2018-07-19T08:38:12.453Z,7.60
2018-07-19T08:40:42.045Z,6.33
2018-07-19T08:43:11.930Z,7.25
2018-07-19T08:45:41.573Z,6.60
2018-07-19T08:48:11.392Z,6.40
2018-07-19T08:50:41.891Z,6.25
2018-07-19T08:53:11.627Z,5.87
2018-07-19T08:55:41.815Z,6.60
2018-07-19T08:58:12.481Z,5.97
2018-07-19T09:00:42.396Z,5.90
2018-07-19T09:03:12.000Z,5.92
2018-07-19T09:05:42.684Z,6.12
2018-07-19T09:08:12.936Z,5.80
2018-07-19T09:10:44.076Z,9.25
2018-07-19T09:13:13.835Z,7.87
2018-07-19T09:15:43.817Z,6.30
2018-07-19T09:18:13.512Z,6.60
2018-07-19T09:20:43.507Z,6.05
2018-07-19T09:23:13.380Z,6.17
2018-07-19T09:25:43.031Z,6.55
2018-07-19T09:28:13.370Z,5.95
2018-07-19T09:30:43.932Z,7.42
2018-07-19T09:33:14.671Z,6.45
2018-07-19T09:35:44.988Z,5.05
2018-07-19T09:38:16.043Z,5.60
2018-07-19T09:40:46.852Z,5.67
2018-07-19T09:43:17.340Z,6.80
2018-07-19T09:45:47.994Z,6.70
2018-07-19T09:48:18.694Z,5.53
2018-07-19T09:50:49.055Z,6.03
2018-07-19T09:53:19.096Z,6.15
2018-07-19T09:55:48.899Z,5.42
2018-07-19T09:58:19.783Z,7.28
2018-07-19T10:00:56.829Z,6.87
2018-07-19T10:03:27.232Z,6.10
2018-07-19T10:06:00.897Z,6.17
2018-07-19T10:08:30.876Z,6.62
2018-07-19T10:11:00.968Z,6.83
2018-07-19T10:13:30.707Z,6.30
2018-07-19T10:16:00.380Z,7.08
2018-07-19T10:18:29.904Z,7.78
2018-07-19T10:20:59.510Z,6.22
2018-07-19T10:23:30.043Z,7.37
2018-07-19T10:26:00.288Z,6.50
2018-07-19T10:28:30.972Z,6.12
2018-07-19T10:31:02.219Z,6.40
2018-07-19T10:33:32.240Z,6.58
2018-07-19T10:36:02.461Z,7.03
2018-07-19T10:38:32.445Z,6.25
2018-07-19T10:41:02.300Z,7.83
2018-07-19T10:43:32.128Z,6.50
2018-07-19T10:46:01.802Z,6.45
2018-07-19T10:48:34.531Z,6.55
2018-07-19T10:51:05.137Z,6.12
2018-07-19T10:53:34.855Z,5.35
2018-07-19T10:56:04.529Z,5.00
2018-07-19T10:58:34.072Z,5.78
2018-07-19T11:01:05.272Z,5.85
2018-07-19T11:03:34.904Z,5.28
2018-07-19T11:06:05.060Z,5.70
2018-07-19T11:08:37.857Z,5.47
2018-07-19T11:11:09.627Z,5.62
2018-07-19T11:13:47.609Z,5.37
2018-07-19T11:16:18.124Z,5.75
2018-07-19T11:18:47.116Z,5.42
2018-07-19T11:21:16.930Z,5.03
2018-07-19T11:23:46.435Z,5.60
2018-07-19T11:26:17.080Z,5.08
2018-07-19T11:28:46.561Z,4.87
2018-07-19T11:31:18.232Z,5.35
2018-07-19T11:33:48.529Z,5.28
2018-07-19T11:36:18.510Z,4.95
2018-07-19T11:38:51.934Z,5.65
2018-07-19T11:41:21.791Z,4.70
2018-07-19T11:43:51.827Z,4.90
2018-07-19T11:46:21.523Z,4.40
2018-07-19T11:48:53.006Z,4.42
2018-07-19T11:51:22.576Z,4.03
2018-07-19T11:53:54.639Z,4.00
2018-07-19T11:56:24.589Z,3.87
2018-07-19T11:58:55.878Z,3.83
2018-07-19T12:01:27.883Z,4.15
2018-07-19T12:03:57.685Z,3.50
2018-07-19T12:06:27.343Z,3.90
2018-07-19T12:08:58.761Z,3.95
2018-07-19T12:11:28.756Z,3.70
2018-07-19T12:13:58.253Z,4.80
2018-07-19T12:16:29.181Z,4.03
2018-07-19T12:19:01.220Z,4.33
2018-07-19T12:21:31.584Z,4.42
2018-07-19T12:24:01.654Z,4.47
2018-07-19T12:26:31.716Z,4.75
2018-07-19T12:29:02.775Z,4.47
2018-07-19T12:31:32.762Z,5.35
2018-07-19T12:34:03.632Z,4.65
2018-07-19T12:36:34.070Z,3.70
2018-07-19T12:39:04.227Z,4.10
2018-07-19T12:41:33.997Z,3.87
2018-07-19T12:44:03.681Z,4.20
2018-07-19T12:46:33.668Z,3.92
2018-07-19T12:49:03.901Z,3.72
2018-07-19T12:51:34.229Z,4.22
2018-07-19T12:54:03.996Z,3.42
2018-07-19T12:56:34.059Z,3.80
2018-07-19T12:59:04.830Z,3.70
2018-07-19T13:01:34.639Z,3.05
2018-07-19T13:04:04.964Z,3.35
2018-07-19T13:06:35.561Z,3.45
2018-07-19T13:09:11.780Z,3.37
2018-07-19T13:11:41.674Z,3.47
2018-07-19T13:14:13.112Z,2.87
2018-07-19T13:16:44.064Z,3.90
2018-07-19T13:19:15.177Z,2.87
2018-07-19T13:21:46.347Z,2.83
2018-07-19T13:24:16.535Z,3.25
2018-07-19T13:26:51.927Z,2.70
2018-07-19T13:29:21.836Z,2.85
2018-07-19T13:31:52.164Z,2.70
2018-07-19T13:34:26.581Z,2.70
2018-07-19T13:36:56.749Z,2.52
2018-07-19T13:39:27.124Z,2.98
2018-07-19T13:41:57.445Z,2.72
2018-07-19T13:44:27.192Z,3.30
2018-07-19T13:46:56.728Z,2.67
2018-07-19T13:49:27.700Z,3.50
2018-07-19T13:51:57.392Z,3.08
2018-07-19T13:54:38.282Z,3.90
2018-07-19T13:57:07.756Z,3.00
2018-07-19T13:59:38.281Z,2.92
2018-07-19T14:02:08.420Z,2.95
2018-07-19T14:04:38.263Z,3.10
2018-07-19T14:07:07.989Z,3.20
2018-07-19T14:09:37.679Z,3.20
2018-07-19T14:12:07.467Z,3.35
2018-07-19T14:14:37.153Z,3.60
2018-07-19T14:17:07.623Z,2.90
2018-07-19T14:19:37.320Z,3.30
2018-07-19T14:22:08.040Z,3.52
2018-07-19T14:24:37.675Z,3.45
2018-07-19T14:27:08.404Z,4.22
2018-07-19T14:29:38.982Z,3.55
2018-07-19T14:32:08.931Z,3.80
2018-07-19T14:34:39.264Z,3.87
2018-07-19T14:37:10.212Z,3.60
2018-07-19T14:39:39.792Z,3.90
2018-07-19T14:42:09.535Z,3.95
2018-07-19T14:44:39.226Z,3.87
2018-07-19T14:47:09.424Z,4.03
2018-07-19T14:49:39.512Z,3.87
2018-07-19T14:52:09.335Z,4.15
2018-07-19T14:54:38.924Z,3.90
2018-07-19T14:57:08.897Z,4.67
2018-07-19T14:59:38.495Z,4.10
2018-07-19T15:02:08.299Z,3.90
2018-07-19T15:04:46.242Z,4.47
2018-07-19T15:07:18.748Z,4.42
2018-07-19T15:09:49.501Z,4.60
2018-07-19T15:12:19.445Z,5.05
2018-07-19T15:14:49.052Z,4.87
2018-07-19T15:17:19.040Z,4.65
2018-07-19T15:19:48.717Z,4.20
2018-07-19T15:22:18.508Z,4.75
2018-07-19T15:24:48.522Z,5.03
2018-07-19T15:27:18.311Z,4.70
2018-07-19T15:29:48.935Z,4.30
2018-07-19T15:32:18.969Z,4.67
2018-07-19T15:34:48.668Z,4.47
2018-07-19T15:37:18.654Z,4.20
2018-07-19T15:39:48.440Z,4.33
2018-07-19T15:42:18.282Z,3.72
2018-07-19T15:44:48.335Z,4.08
2018-07-19T15:47:17.881Z,4.08
2018-07-19T15:49:47.480Z,3.83
2018-07-19T15:52:17.391Z,4.17
2018-07-19T15:54:47.244Z,3.72
2018-07-19T15:57:16.932Z,3.98
2018-07-19T15:59:47.237Z,3.65
2018-07-19T16:02:16.697Z,3.87
2018-07-19T16:04:47.376Z,3.60
2018-07-19T16:07:17.529Z,3.27
2018-07-19T16:09:47.099Z,3.75
2018-07-19T16:12:16.873Z,3.98
2018-07-19T16:14:46.585Z,3.85
2018-07-19T16:17:16.376Z,4.20
2018-07-19T16:19:46.167Z,4.15
2018-07-19T16:22:15.712Z,3.85
2018-07-19T16:24:45.707Z,3.75
2018-07-19T16:27:16.085Z,3.87
2018-07-19T16:29:45.752Z,3.65
2018-07-19T16:32:16.259Z,3.90
2018-07-19T16:34:45.970Z,3.85
2018-07-19T16:37:15.596Z,3.95
2018-07-19T16:39:45.948Z,3.47
2018-07-19T16:42:15.940Z,3.65
2018-07-19T16:44:45.565Z,3.80
2018-07-19T16:47:16.008Z,3.87
2018-07-19T16:49:46.014Z,3.20
2018-07-19T16:52:16.003Z,3.40
2018-07-19T16:54:45.656Z,4.00
2018-07-19T16:57:16.291Z,3.40
2018-07-19T16:59:46.821Z,3.37
2018-07-19T17:02:16.953Z,3.15
2018-07-19T17:04:46.594Z,3.67
2018-07-19T17:07:17.461Z,3.27
2018-07-19T17:09:47.329Z,2.80
2018-07-19T17:12:16.692Z,3.75
2018-07-19T17:14:46.724Z,3.35
2018-07-19T17:17:16.722Z,3.10
2018-07-19T17:19:47.276Z,3.05
2018-07-19T17:22:17.812Z,3.60
2018-07-19T17:24:47.648Z,3.25
2018-07-19T17:27:18.252Z,3.95
2018-07-19T17:29:47.743Z,3.50
2018-07-19T17:32:17.945Z,3.67
2018-07-19T17:34:48.764Z,3.27
2018-07-19T17:37:19.478Z,3.60
2018-07-19T17:39:49.876Z,4.05
2018-07-19T17:42:19.701Z,3.90
2018-07-19T17:44:49.901Z,3.58
2018-07-19T17:47:19.679Z,3.65
2018-07-19T17:49:49.544Z,6.28
2018-07-19T17:52:19.494Z,7.10
2018-07-19T17:54:49.501Z,3.80
2018-07-19T17:57:19.274Z,3.83
2018-07-19T17:59:49.231Z,3.60
2018-07-19T18:02:19.188Z,4.12
2018-07-19T18:04:49.005Z,3.22
2018-07-19T18:07:18.931Z,3.65
2018-07-19T18:09:48.552Z,3.35
2018-07-19T18:12:19.109Z,3.27
2018-07-19T18:14:49.416Z,3.62
2018-07-19T18:17:19.509Z,3.37
2018-07-19T18:19:49.111Z,4.03
2018-07-19T18:22:19.012Z,3.65
2018-07-19T18:24:49.016Z,3.72
2018-07-19T18:27:18.649Z,3.50
2018-07-19T18:29:49.905Z,4.30
2018-07-19T18:32:19.884Z,4.37
2018-07-19T18:34:50.189Z,3.62
2018-07-19T18:37:20.560Z,3.80
2018-07-19T18:39:50.624Z,3.37
2018-07-19T18:42:20.919Z,3.58
2018-07-19T18:44:50.708Z,3.70
2018-07-19T18:47:20.753Z,3.37
2018-07-19T18:49:51.362Z,3.55
2018-07-19T18:52:21.601Z,4.55
2018-07-19T18:54:51.795Z,3.65
2018-07-19T18:57:22.642Z,3.83
2018-07-19T18:59:52.708Z,3.92
2018-07-19T19:02:23.335Z,4.00
2018-07-19T19:04:53.398Z,4.20
2018-07-19T19:07:23.545Z,4.83
2018-07-19T19:09:53.600Z,2.83
2018-07-19T19:12:23.170Z,3.55
2018-07-19T19:14:53.260Z,3.92
2018-07-19T19:17:23.377Z,4.03
2018-07-19T19:19:53.862Z,4.08
2018-07-19T19:22:25.346Z,4.53
2018-07-19T19:24:55.377Z,5.22
2018-07-19T19:27:26.012Z,4.70
2018-07-19T19:29:56.403Z,5.72
2018-07-19T19:32:26.565Z,4.60
2018-07-19T19:34:56.384Z,5.10
2018-07-19T19:37:26.512Z,4.45
2018-07-19T19:39:56.568Z,4.65
2018-07-19T19:42:27.226Z,4.55
2018-07-19T19:44:57.570Z,4.25
2018-07-19T19:47:27.315Z,3.62
2018-07-19T19:49:56.679Z,3.98
2018-07-19T19:52:33.174Z,3.67
2018-07-19T19:55:03.554Z,4.35
2018-07-19T19:57:33.360Z,3.98
2018-07-19T20:00:04.330Z,4.15
2018-07-19T20:02:35.209Z,4.22
2018-07-19T20:05:05.133Z,3.62
2018-07-19T20:07:35.170Z,3.10
2018-07-19T20:10:05.426Z,3.30
2018-07-19T20:12:35.623Z,4.62
2018-07-19T20:15:05.692Z,3.67
2018-07-19T20:17:36.158Z,3.85
2018-07-19T20:20:06.779Z,3.65
2018-07-19T20:22:36.960Z,3.90
2018-07-19T20:25:07.524Z,4.03
2018-07-19T20:27:37.596Z,3.80
2018-07-19T20:30:07.940Z,3.83
2018-07-19T20:32:42.438Z,3.80
2018-07-19T20:35:12.529Z,3.70
2018-07-19T20:37:43.092Z,3.95
2018-07-19T20:40:13.624Z,4.42
2018-07-19T20:42:44.820Z,4.00
2018-07-19T20:45:15.372Z,4.20
2018-07-19T20:47:45.627Z,5.20
2018-07-19T20:50:15.397Z,4.40
2018-07-19T20:52:45.274Z,5.10
2018-07-19T20:55:15.297Z,5.35
2018-07-19T20:57:45.159Z,5.17
2018-07-19T21:00:16.885Z,5.03
2018-07-19T21:02:46.946Z,4.72
2018-07-19T21:05:18.231Z,4.03
2018-07-19T21:07:48.209Z,4.12
2018-07-19T21:10:19.788Z,4.42
2018-07-19T21:12:49.968Z,4.05
2018-07-19T21:15:21.370Z,3.87
2018-07-19T21:17:52.905Z,4.37
2018-07-19T21:20:23.127Z,4.08
2018-07-19T21:22:53.640Z,3.70
2018-07-19T21:25:23.696Z,3.98
2018-07-19T21:27:53.748Z,4.40
2018-07-19T21:30:23.540Z,5.42
2018-07-19T21:32:53.929Z,4.55
2018-07-19T21:35:24.244Z,4.67
2018-07-19T21:37:56.145Z,4.35
2018-07-19T21:40:25.609Z,4.40
2018-07-19T21:42:56.045Z,4.85
2018-07-19T21:45:25.917Z,4.80
2018-07-19T21:47:55.794Z,4.72
2018-07-19T21:50:25.852Z,4.78
2018-07-19T21:52:56.478Z,5.05
2018-07-19T21:55:26.042Z,5.08
2018-07-19T21:57:55.947Z,4.83
2018-07-19T22:00:29.664Z,4.67
2018-07-19T22:03:01.056Z,4.33
2018-07-19T22:05:30.636Z,4.80
2018-07-19T22:08:00.202Z,4.43
2018-07-19T22:10:30.248Z,5.08
2018-07-19T22:12:59.712Z,4.85
2018-07-19T22:15:29.768Z,4.60
2018-07-19T22:18:00.232Z,4.20
2018-07-19T22:20:30.114Z,3.87
2018-07-19T22:22:59.736Z,4.33
2018-07-19T22:25:29.371Z,4.20
2018-07-19T22:27:59.235Z,4.50
2018-07-19T22:30:28.948Z,3.90
2018-07-19T22:32:59.550Z,4.50
2018-07-19T22:35:29.428Z,4.25
2018-07-19T22:37:59.246Z,4.70
2018-07-19T22:40:28.791Z,4.33
2018-07-19T22:42:58.702Z,4.20
2018-07-19T22:45:29.884Z,4.03
2018-07-19T22:47:59.862Z,4.10
2018-07-19T22:50:29.398Z,4.40
2018-07-19T22:52:59.576Z,5.05
2018-07-19T22:55:30.579Z,4.40
2018-07-19T22:58:00.329Z,4.20
2018-07-19T23:00:30.019Z,5.10
2018-07-19T23:03:00.920Z,4.95
2018-07-19T23:05:31.428Z,5.13
2018-07-19T23:08:01.444Z,5.13
2018-07-19T23:10:31.831Z,4.80
2018-07-19T23:13:01.377Z,4.87
2018-07-19T23:15:30.956Z,5.40
2018-07-19T23:18:01.304Z,4.20
2018-07-19T23:20:31.167Z,4.87
2018-07-19T23:23:02.694Z,4.53
2018-07-19T23:25:32.172Z,4.73
2018-07-19T23:28:02.904Z,4.58
2018-07-19T23:30:35.324Z,5.40
2018-07-19T23:33:05.279Z,5.07
2018-07-19T23:35:42.713Z,4.65
2018-07-19T23:38:18.223Z,5.40
2018-07-19T23:40:50.529Z,5.05
2018-07-19T23:43:26.279Z,4.90
2018-07-19T23:46:05.176Z,4.73
2018-07-19T23:48:36.031Z,4.60
2018-07-19T23:51:09.245Z,4.80
2018-07-19T23:53:40.276Z,5.05
2018-07-19T23:56:09.872Z,6.17
2018-07-19T23:58:40.032Z,5.43
